Time;durP1;ratioP1;P1;durP2;ratioP2;P2;SDS_P1;SDS_P2;PMS_P1;PMS_P2;Temp;Humidity;BMP_temperature;BMP_pressure;BME280_temperature;BME280_humidity;BME280_pressure;Samples;Min_cycle;Max_cycle;Signal;HPM_P1;HPM_P2
2022/06/18 05:01:30;;;;;;;4.30;2.20;;;19.20;81.10;;;;;;5892601;23;20020;-78
2022/06/18 05:04:04;;;;;;;4.47;2.38;;;19.40;81.00;;;;;;4869541;29;20334;-78
2022/06/18 05:06:35;;;;;;;3.85;2.17;;;19.40;80.60;;;;;;4871308;29;20033;-77
2022/06/18 05:09:04;;;;;;;4.40;2.50;;;19.60;80.50;;;;;;4885143;29;20030;-78
2022/06/18 05:11:45;;;;;;;6.78;3.20;;;19.70;79.90;;;;;;4851788;29;20431;-76
2022/06/18 05:14:23;;;;;;;4.63;3.03;;;19.80;80.00;;;;;;4851027;29;20026;-77
2022/06/18 05:16:53;;;;;;;4.68;2.60;;;19.90;79.80;;;;;;4850881;29;20155;-77
2022/06/18 05:19:24;;;;;;;4.78;2.50;;;20.00;79.70;;;;;;4862913;29;20037;-77
2022/06/18 05:21:51;;;;;;;5.03;2.60;;;20.00;79.50;;;;;;4885371;29;20307;-77
2022/06/18 05:24:17;;;;;;;3.42;2.15;;;20.10;79.50;;;;;;4884759;29;20061;-78
2022/06/18 05:26:50;;;;;;;3.50;2.20;;;20.20;79.40;;;;;;4885300;29;20032;-77
2022/06/18 05:29:17;;;;;;;6.32;2.35;;;20.30;78.90;;;;;;4869159;29;20053;-78
2022/06/18 05:31:43;;;;;;;5.20;2.30;;;20.40;79.00;;;;;;4884619;29;20046;-78
2022/06/18 05:34:11;;;;;;;7.28;3.25;;;20.50;78.50;;;;;;4853768;29;20112;-78
2022/06/18 05:36:37;;;;;;;6.28;3.50;;;20.60;78.60;;;;;;4885027;29;20033;-77
2022/06/18 05:39:06;;;;;;;4.60;2.97;;;20.50;78.60;;;;;;4885052;29;20222;-77
2022/06/18 05:41:32;;;;;;;7.72;3.85;;;20.60;78.60;;;;;;4870151;29;20085;-79
2022/06/18 05:43:58;;;;;;;4.60;2.80;;;20.70;78.60;;;;;;4884686;29;20041;-77
2022/06/18 05:46:24;;;;;;;6.38;2.53;;;20.80;78.10;;;;;;4883215;29;20409;-76
2022/06/18 05:48:50;;;;;;;4.28;2.13;;;20.80;77.80;;;;;;4870477;29;20033;-77
2022/06/18 05:51:16;;;;;;;3.35;2.15;;;20.90;77.70;;;;;;4884222;29;20036;-76
2022/06/18 05:53:42;;;;;;;4.43;2.50;;;21.00;77.70;;;;;;4884748;29;20074;-78
2022/06/18 05:56:35;;;;;;;5.78;2.40;;;21.00;78.00;;;;;;4884692;29;20041;-78
2022/06/18 05:59:12;;;;;;;4.07;2.35;;;21.10;78.30;;;;;;4870706;29;20048;-78
2022/06/18 06:01:41;;;;;;;4.90;2.60;;;21.10;78.10;;;;;;4885275;29;20053;-80
2022/06/18 06:04:07;;;;;;;5.25;2.35;;;21.20;77.70;;;;;;4888838;29;20041;-77
2022/06/18 06:06:32;;;;;;;3.95;2.28;;;21.30;77.90;;;;;;4887111;29;20403;-77
2022/06/18 06:08:59;;;;;;;4.25;2.55;;;21.30;77.70;;;;;;4887593;29;20033;-78
2022/06/18 06:11:32;;;;;;;3.85;2.22;;;21.30;77.70;;;;;;4888221;29;20024;-78
2022/06/18 06:14:04;;;;;;;5.18;2.90;;;21.40;77.70;;;;;;4887221;29;20025;-78
2022/06/18 06:16:31;;;;;;;7.90;4.90;;;21.40;77.60;;;;;;4901809;29;20056;-78
2022/06/18 06:19:01;;;;;;;5.40;3.20;;;21.60;77.30;;;;;;4903003;29;20033;-78
2022/06/18 06:21:27;;;;;;;8.30;2.70;;;21.60;77.20;;;;;;4887897;29;20029;-77
2022/06/18 06:23:52;;;;;;;8.85;2.85;;;21.70;77.10;;;;;;4888671;29;20029;-77
2022/06/18 06:26:25;;;;;;;6.30;3.30;;;21.80;76.60;;;;;;4887969;29;20037;-77
2022/06/18 06:28:51;;;;;;;7.38;2.90;;;21.90;76.30;;;;;;4888115;29;20100;-77
2022/06/18 06:31:18;;;;;;;5.15;2.30;;;22.00;76.10;;;;;;4887283;29;20040;-76
2022/06/18 06:33:44;;;;;;;4.57;2.38;;;22.10;76.00;;;;;;4888432;29;20032;-76
2022/06/18 06:36:11;;;;;;;5.32;2.53;;;22.20;75.50;;;;;;4888080;29;20336;-76
2022/06/18 06:38:39;;;;;;;5.00;2.33;;;22.40;75.10;;;;;;4888058;29;20113;-76
2022/06/18 06:41:10;;;;;;;7.47;3.53;;;22.60;74.80;;;;;;4902888;29;20037;-77
2022/06/18 06:43:36;;;;;;;6.35;3.25;;;22.70;75.10;;;;;;4887607;29;20044;-77
2022/06/18 06:46:01;;;;;;;7.68;2.55;;;22.90;74.00;;;;;;4887844;29;20045;-77
2022/06/18 06:48:27;;;;;;;3.35;2.13;;;23.00;74.00;;;;;;4887498;29;20218;-78
2022/06/18 06:50:53;;;;;;;3.40;2.20;;;23.10;73.50;;;;;;4888455;29;20044;-77
2022/06/18 06:53:19;;;;;;;4.20;2.20;;;23.30;73.20;;;;;;4887482;29;20092;-77
2022/06/18 06:58:29;;;;;;;6.03;2.95;;;23.60;72.40;;;;;;4891563;29;20322;-75
2022/06/18 07:00:57;;;;;;;5.38;2.95;;;23.70;72.00;;;;;;4891550;29;20041;-75
2022/06/18 07:03:27;;;;;;;6.82;3.30;;;23.90;71.90;;;;;;4891266;29;20239;-76
2022/06/18 07:05:54;;;;;;;3.88;2.25;;;24.10;71.90;;;;;;4891717;29;20037;-78
2022/06/18 07:08:20;;;;;;;4.93;2.25;;;24.20;71.00;;;;;;4890913;29;20121;-78
2022/06/18 07:10:48;;;;;;;3.35;2.33;;;24.30;71.00;;;;;;4891900;29;20052;-78
2022/06/18 07:13:18;;;;;;;6.30;2.85;;;24.40;70.70;;;;;;4892003;29;20218;-77
2022/06/18 07:15:44;;;;;;;7.07;2.42;;;24.50;70.70;;;;;;4891051;29;20109;-76
2022/06/18 07:18:15;;;;;;;4.15;2.15;;;24.60;70.60;;;;;;4891691;29;20222;-77
2022/06/18 07:20:42;;;;;;;5.05;2.67;;;24.70;70.30;;;;;;4890480;29;20048;-76
2022/06/18 07:23:08;;;;;;;4.88;2.35;;;24.90;70.20;;;;;;4891670;29;20037;-77
2022/06/18 07:25:34;;;;;;;5.95;2.40;;;25.00;69.50;;;;;;4889882;29;20041;-76
2022/06/18 07:28:00;;;;;;;4.57;2.15;;;25.20;69.20;;;;;;4891307;29;20036;-77
2022/06/18 07:30:26;;;;;;;4.13;2.60;;;25.30;69.00;;;;;;4890270;29;20231;-77
2022/06/18 07:32:52;;;;;;;5.05;2.13;;;25.40;68.90;;;;;;4890116;29;20332;-78
2022/06/18 07:35:22;;;;;;;4.30;2.40;;;25.50;68.60;;;;;;4890613;29;20135;-77
2022/06/18 07:37:48;;;;;;;4.10;2.10;;;25.60;68.50;;;;;;4891131;29;20044;-78
2022/06/18 07:40:14;;;;;;;3.60;2.15;;;25.60;68.50;;;;;;4891225;29;20093;-78
2022/06/18 07:42:42;;;;;;;4.03;2.22;;;25.70;68.50;;;;;;4890443;29;20033;-77
2022/06/18 07:45:20;;;;;;;3.55;2.20;;;25.90;68.10;;;;;;4890609;29;20072;-77
2022/06/18 07:47:50;;;;;;;5.18;2.72;;;26.10;67.70;;;;;;4890280;29;20112;-77
2022/06/18 07:50:18;;;;;;;5.80;2.40;;;26.20;67.50;;;;;;4890954;29;20037;-76
2022/06/18 07:52:44;;;;;;;5.03;2.67;;;26.30;67.60;;;;;;4891091;29;20036;-77
2022/06/18 07:55:15;;;;;;;4.38;2.53;;;26.50;67.40;;;;;;4890985;29;20041;-77
2022/06/18 07:57:42;;;;;;;6.82;2.28;;;26.60;66.60;;;;;;4890381;29;20040;-78
2022/06/18 08:00:10;;;;;;;4.90;2.07;;;26.60;66.40;;;;;;4890524;29;20029;-78
2022/06/18 08:02:39;;;;;;;8.18;2.63;;;26.70;65.80;;;;;;4889975;29;21337;-76
2022/06/18 08:05:07;;;;;;;3.75;2.05;;;26.80;66.10;;;;;;4890858;29;20040;-78
2022/06/18 08:07:33;;;;;;;5.95;2.25;;;26.90;66.10;;;;;;4904172;29;20057;-77
2022/06/18 08:09:59;;;;;;;4.78;2.30;;;27.10;66.10;;;;;;4890759;29;20100;-78
2022/06/18 08:12:25;;;;;;;5.57;2.20;;;27.30;65.60;;;;;;4890601;29;20036;-78
2022/06/18 08:14:51;;;;;;;7.13;2.25;;;27.40;65.30;;;;;;4890357;29;20025;-77
2022/06/18 08:17:16;;;;;;;6.50;2.15;;;27.60;64.90;;;;;;4890371;29;20100;-79
2022/06/18 08:19:42;;;;;;;5.03;2.08;;;27.60;65.00;;;;;;4890056;29;20132;-78
2022/06/18 08:22:08;;;;;;;4.15;2.10;;;27.80;65.10;;;;;;4890507;29;20037;-78
2022/06/18 08:24:34;;;;;;;4.30;2.15;;;27.80;64.50;;;;;;4889924;29;20025;-78
2022/06/18 08:27:00;;;;;;;4.75;2.10;;;27.90;64.50;;;;;;4889405;29;20032;-77
2022/06/18 08:29:27;;;;;;;4.65;2.00;;;28.10;63.70;;;;;;4888947;29;20301;-78
2022/06/18 08:31:52;;;;;;;5.32;2.17;;;28.30;63.80;;;;;;4890230;29;20045;-78
2022/06/18 08:34:18;;;;;;;4.43;2.00;;;28.50;63.10;;;;;;4890525;29;20219;-78
2022/06/18 08:36:44;;;;;;;3.92;2.30;;;28.60;62.80;;;;;;4889756;29;20033;-78
2022/06/18 08:39:13;;;;;;;5.25;2.50;;;28.60;62.30;;;;;;4890240;29;20032;-78
2022/06/18 08:41:57;;;;;;;4.00;1.92;;;28.50;62.40;;;;;;4903883;29;20029;-77
2022/06/18 08:44:46;;;;;;;4.45;1.90;;;28.70;62.90;;;;;;4888504;29;20041;-76
2022/06/18 08:47:29;;;;;;;5.25;1.90;;;28.90;62.60;;;;;;4889944;29;20124;-77
2022/06/18 08:50:20;;;;;;;6.47;2.08;;;29.20;62.00;;;;;;4890461;29;20032;-76
2022/06/18 08:53:06;;;;;;;2.55;1.90;;;29.20;61.30;;;;;;4890025;29;20032;-76
2022/06/18 08:55:55;;;;;;;3.45;1.90;;;29.40;61.10;;;;;;4889504;29;20032;-76
2022/06/18 08:58:46;;;;;;;5.60;2.03;;;29.60;60.60;;;;;;4888941;29;20314;-76
2022/06/18 09:01:22;;;;;;;3.85;1.90;;;29.50;59.70;;;;;;4889430;29;20056;-78
2022/06/18 09:04:03;;;;;;;3.70;1.88;;;29.50;59.60;;;;;;4889532;29;20057;-76
2022/06/18 09:06:32;;;;;;;4.78;1.90;;;29.60;60.10;;;;;;4888557;29;20044;-77
2022/06/18 09:09:22;;;;;;;4.78;1.80;;;29.60;59.30;;;;;;4887839;29;20310;-77
2022/06/18 09:12:09;;;;;;;4.75;1.90;;;29.80;59.60;;;;;;4884553;29;20037;-77
2022/06/18 09:14:54;;;;;;;2.83;1.85;;;29.90;58.80;;;;;;4889162;29;20097;-76
2022/06/18 09:17:25;;;;;;;3.80;1.67;;;30.00;58.00;;;;;;4903580;29;20081;-77
2022/06/18 09:20:02;;;;;;;3.25;1.80;;;30.20;57.80;;;;;;4903197;29;20071;-77
2022/06/18 09:22:30;;;;;;;4.05;2.10;;;30.40;57.50;;;;;;4903931;29;20040;-77
2022/06/18 09:25:03;;;;;;;2.83;1.67;;;30.50;56.80;;;;;;4896503;29;20124;-76
2022/06/18 09:27:41;;;;;;;3.47;1.70;;;30.60;56.20;;;;;;4884963;29;20064;-77
2022/06/18 09:30:21;;;;;;;5.07;1.52;;;30.60;56.40;;;;;;4870318;29;20033;-76
2022/06/18 09:32:59;;;;;;;2.40;1.45;;;30.70;55.70;;;;;;4884802;29;20044;-75
2022/06/18 09:35:30;;;;;;;;;;;30.70;55.60;;;;;;4885133;29;20033;-75
2022/06/18 09:38:26;;;;;;;2.13;1.40;;;30.90;55.50;;;;;;4870916;29;19992;-75
2022/06/18 09:40:59;;;;;;;4.22;1.75;;;31.00;55.00;;;;;;4869448;29;20029;-75
2022/06/18 09:43:55;;;;;;;2.85;1.48;;;31.10;54.60;;;;;;4870403;29;20029;-76
2022/06/18 09:46:35;;;;;;;2.17;1.60;;;31.00;54.30;;;;;;4853487;29;20045;-75
2022/06/18 09:49:00;;;;;;;4.85;1.60;;;31.10;54.60;;;;;;4870286;29;20417;-76
2022/06/18 09:51:43;;;;;;;3.80;1.60;;;31.20;54.10;;;;;;4870015;29;20061;-77
2022/06/18 09:54:10;;;;;;;3.08;1.67;;;31.30;53.70;;;;;;4869548;29;20036;-76
2022/06/18 09:57:06;;;;;;;3.38;1.60;;;31.50;53.70;;;;;;4869816;29;20109;-76
2022/06/18 09:59:37;;;;;;;2.50;1.50;;;31.40;53.00;;;;;;4873033;29;20121;-77
2022/06/18 10:02:27;;;;;;;3.25;1.40;;;31.30;53.20;;;;;;4869568;29;20101;-76
2022/06/18 10:07:46;;;;;;;4.55;1.30;;;31.50;52.60;;;;;;4870058;29;20041;-76
2022/06/18 10:10:17;;;;;;;1.98;1.10;;;31.60;51.50;;;;;;4870110;29;20091;-76
2022/06/18 10:12:53;;;;;;;2.10;1.20;;;31.60;52.30;;;;;;4868470;29;20269;-75
2022/06/18 10:15:20;;;;;;;2.70;1.27;;;31.90;52.10;;;;;;4869806;29;20029;-75
2022/06/18 10:18:20;;;;;;;2.63;1.20;;;31.70;50.20;;;;;;4883787;29;20396;-76
2022/06/18 10:21:10;;;;;;;3.28;1.50;;;31.90;50.80;;;;;;4868627;29;20375;-75
2022/06/18 10:24:05;;;;;;;2.85;1.30;;;32.00;50.90;;;;;;4869630;29;20052;-75
2022/06/18 10:26:49;;;;;;;2.33;1.20;;;32.20;50.00;;;;;;4869377;29;20106;-76
2022/06/18 10:29:38;;;;;;;3.15;1.20;;;32.30;49.80;;;;;;4869814;29;20037;-76
2022/06/18 10:32:25;;;;;;;2.08;1.15;;;32.40;49.60;;;;;;4867700;29;20129;-76
2022/06/18 10:35:19;;;;;;;2.45;1.00;;;32.40;50.20;;;;;;4868411;29;20082;-77
2022/06/18 10:37:48;;;;;;;3.42;1.00;;;32.60;49.60;;;;;;4869589;29;20263;-76
2022/06/18 10:40:40;;;;;;;3.78;1.65;;;32.80;49.00;;;;;;4868580;29;20044;-77
2022/06/18 10:43:38;;;;;;;2.15;1.10;;;32.80;48.90;;;;;;4869840;29;20056;-77
2022/06/18 10:46:14;;;;;;;5.05;1.17;;;32.90;49.20;;;;;;4869005;29;20280;-77
2022/06/18 10:48:46;;;;;;;2.45;0.80;;;33.10;48.80;;;;;;4869133;29;20041;-78
2022/06/18 10:51:21;;;;;;;2.38;1.00;;;33.10;47.90;;;;;;4872730;29;20033;-76
2022/06/18 10:53:59;;;;;;;2.42;1.00;;;33.20;47.70;;;;;;4886363;29;20263;-77
2022/06/18 10:56:31;;;;;;;2.28;1.00;;;33.40;48.60;;;;;;4886944;29;20037;-78
2022/06/18 10:59:01;;;;;;;2.55;0.80;;;33.60;47.80;;;;;;4887061;29;20326;-78
2022/06/18 11:01:34;;;;;;;2.00;1.10;;;33.70;47.00;;;;;;4886429;29;20076;-77
2022/06/18 11:04:22;;;;;;;3.45;1.10;;;33.80;47.10;;;;;;4901306;29;20045;-78
2022/06/18 11:06:53;;;;;;;3.70;1.00;;;33.90;47.00;;;;;;4901237;29;20070;-77
2022/06/18 11:09:27;;;;;;;2.13;0.90;;;34.10;46.10;;;;;;4901544;29;20029;-78
2022/06/18 11:12:22;;;;;;;2.53;0.80;;;34.10;45.00;;;;;;4886558;29;20037;-79
2022/06/18 11:14:49;;;;;;;1.60;0.85;;;34.20;45.60;;;;;;4884347;29;20041;-77
2022/06/18 11:17:33;;;;;;;2.22;0.80;;;34.30;45.60;;;;;;4886500;29;20060;-79
2022/06/18 11:20:15;;;;;;;1.80;1.02;;;34.40;45.80;;;;;;4901956;29;20037;-77
2022/06/18 11:22:43;;;;;;;2.45;1.00;;;34.60;45.60;;;;;;4887355;29;20096;-77
2022/06/18 11:25:44;;;;;;;2.05;1.00;;;34.70;45.40;;;;;;4902497;29;20078;-77
2022/06/18 11:28:21;;;;;;;2.58;0.90;;;35.10;45.10;;;;;;4888065;29;20025;-75
2022/06/18 11:30:50;;;;;;;1.48;0.70;;;35.30;43.60;;;;;;4887691;29;20113;-77
2022/06/18 11:33:29;;;;;;;3.50;1.00;;;35.40;45.00;;;;;;4888034;29;20141;-77
2022/06/18 11:35:57;;;;;;;2.58;0.80;;;35.50;44.40;;;;;;4902155;29;20145;-76
2022/06/18 11:38:32;;;;;;;1.92;0.70;;;35.90;43.70;;;;;;4902960;29;20033;-76
2022/06/18 11:41:18;;;;;;;3.30;1.15;;;36.50;42.70;;;;;;4888755;29;20062;-78
2022/06/18 11:44:17;;;;;;;3.25;1.10;;;37.10;42.20;;;;;;4889639;29;20088;-78
2022/06/18 11:46:49;;;;;;;2.55;0.90;;;37.70;42.50;;;;;;4890229;29;20041;-78
2022/06/18 11:49:27;;;;;;;4.22;1.10;;;38.30;42.70;;;;;;4891434;29;20032;-76
2022/06/18 11:52:02;;;;;;;3.38;0.88;;;38.80;41.90;;;;;;4891163;29;20060;-78
2022/06/18 11:54:34;;;;;;;3.92;1.30;;;39.30;41.90;;;;;;4891435;29;20044;-77
2022/06/18 11:57:15;;;;;;;7.25;1.60;;;39.70;41.50;;;;;;4890550;29;20037;-77
2022/06/18 11:59:53;;;;;;;5.20;1.25;;;39.90;41.90;;;;;;4887068;29;20064;-76
2022/06/18 12:02:54;;;;;;;5.28;1.33;;;40.60;40.80;;;;;;4885791;29;20092;-77
2022/06/18 12:05:28;;;;;;;6.45;1.48;;;41.60;40.20;;;;;;4900438;29;20033;-77
2022/06/18 12:07:56;;;;;;;6.78;1.50;;;42.60;39.90;;;;;;4888907;29;20033;-78
2022/06/18 12:10:46;;;;;;;6.20;1.20;;;42.50;39.40;;;;;;4890092;29;20029;-76
2022/06/18 12:13:41;;;;;;;5.35;1.40;;;43.20;38.90;;;;;;4890197;29;20040;-76
2022/06/18 12:16:36;;;;;;;3.92;1.27;;;43.10;38.90;;;;;;4889108;29;20041;-77
2022/06/18 12:19:21;;;;;;;3.90;0.88;;;44.00;39.20;;;;;;4888883;29;20037;-75
2022/06/18 12:21:51;;;;;;;5.35;1.67;;;44.40;38.30;;;;;;4889358;29;20100;-77
2022/06/18 12:24:23;;;;;;;4.68;0.93;;;45.00;38.50;;;;;;4890193;29;20303;-75
2022/06/18 12:27:10;;;;;;;5.93;1.52;;;45.90;38.30;;;;;;4904576;29;20041;-75
2022/06/18 12:30:21;;;;;;;6.07;1.65;;;46.20;37.60;;;;;;4888731;29;20186;-78
2022/06/18 12:32:59;;;;;;;6.00;1.38;;;46.20;37.60;;;;;;4887939;29;20072;-75
2022/06/18 12:35:43;;;;;;;6.22;1.38;;;47.30;37.80;;;;;;4904689;29;20306;-76
2022/06/18 12:38:28;;;;;;;9.95;2.35;;;46.90;36.90;;;;;;4889975;29;20052;-76
2022/06/18 12:41:22;;;;;;;6.60;1.55;;;46.90;37.00;;;;;;4903798;29;20188;-78
2022/06/18 12:44:02;;;;;;;4.80;1.60;;;47.40;37.20;;;;;;4889108;29;20025;-79
2022/06/18 12:46:30;;;;;;;7.78;1.58;;;48.00;36.90;;;;;;4903322;29;20069;-77
2022/06/18 12:49:41;;;;;;;6.68;1.58;;;47.90;36.80;;;;;;4904029;29;20044;-77
2022/06/18 12:52:17;;;;;;;8.38;1.65;;;47.50;36.50;;;;;;4864131;29;20073;-78
2022/06/18 12:55:12;;;;;;;5.13;1.42;;;48.10;37.10;;;;;;4903614;29;20081;-76
2022/06/18 12:57:59;;;;;;;7.40;1.63;;;48.70;36.50;;;;;;4880861;29;20061;-77
2022/06/18 13:00:49;;;;;;;8.13;1.67;;;48.60;36.90;;;;;;4900644;29;20053;-79
2022/06/18 13:03:34;;;;;;;8.20;1.67;;;49.00;36.50;;;;;;4877924;29;20037;-76
2022/06/18 13:06:22;;;;;;;4.63;1.40;;;48.70;36.90;;;;;;4888985;29;20040;-78
2022/06/18 13:09:17;;;;;;;4.43;1.40;;;49.40;36.40;;;;;;4889038;29;20035;-77
2022/06/18 13:12:04;;;;;;;9.38;1.70;;;50.00;36.40;;;;;;4904397;29;20033;-76
2022/06/18 13:14:56;;;;;;;5.95;2.15;;;50.70;37.10;;;;;;4893460;29;20090;-76
2022/06/18 13:17:31;;;;;;;6.18;1.65;;;49.20;36.50;;;;;;4890697;29;20122;-80
2022/06/18 13:20:04;;;;;;;5.23;1.70;;;48.90;37.30;;;;;;4907912;29;20101;-76
2022/06/18 13:22:30;;;;;;;6.90;1.73;;;48.40;37.20;;;;;;4907001;29;20141;-77
2022/06/18 13:28:26;;;;;;;8.75;1.88;;;48.50;37.20;;;;;;4888464;29;20029;-76
2022/06/18 13:30:52;;;;;;;6.88;2.30;;;49.30;37.20;;;;;;4887227;29;20041;-76
2022/06/18 13:33:26;;;;;;;8.30;1.90;;;50.60;36.50;;;;;;4903362;29;20196;-77
2022/06/18 13:35:58;;;;;;;6.68;1.70;;;50.90;36.60;;;;;;4887979;29;20401;-76
2022/06/18 13:38:54;;;;;;;7.97;1.77;;;51.20;36.30;;;;;;4888927;29;20115;-77
2022/06/18 13:41:46;;;;;;;8.00;1.88;;;51.10;36.20;;;;;;4903599;29;20029;-77
2022/06/18 13:44:26;;;;;;;8.98;2.13;;;50.10;36.20;;;;;;4888295;29;20049;-76
2022/06/18 13:46:55;;;;;;;8.60;1.75;;;50.30;36.60;;;;;;4887058;29;20096;-75
2022/06/18 13:49:46;;;;;;;5.07;1.70;;;51.10;36.30;;;;;;4888088;29;20060;-78
2022/06/18 13:52:14;;;;;;;7.60;1.85;;;52.20;36.00;;;;;;4888476;29;20069;-80
2022/06/18 13:54:44;;;;;;;7.90;2.00;;;52.30;36.50;;;;;;4902907;29;20125;-76
2022/06/18 13:57:12;;;;;;;7.07;1.85;;;53.80;36.20;;;;;;4888200;29;20053;-77
2022/06/18 13:59:49;;;;;;;7.53;2.40;;;54.40;35.50;;;;;;4888132;29;20089;-77
2022/06/18 14:02:32;;;;;;;4.95;1.70;;;53.40;35.20;;;;;;4887638;29;20053;-78
2022/06/18 14:05:09;;;;;;;7.80;2.03;;;52.80;35.70;;;;;;4868629;29;20037;-78
2022/06/18 14:07:44;;;;;;;6.32;2.03;;;53.00;35.70;;;;;;4869068;29;20029;-76
2022/06/18 14:10:24;;;;;;;7.97;2.22;;;53.10;35.50;;;;;;4885524;29;20044;-77
2022/06/18 14:13:11;;;;;;;5.78;2.25;;;52.10;36.00;;;;;;4887720;29;20033;-76
2022/06/18 14:15:39;;;;;;;6.25;1.70;;;51.90;36.20;;;;;;4902325;29;20037;-78
2022/06/18 14:18:07;;;;;;;5.30;2.03;;;52.50;35.80;;;;;;4887629;29;20347;-76
2022/06/18 14:20:39;;;;;;;6.85;1.90;;;51.70;36.00;;;;;;4887938;29;20307;-78
2022/06/18 14:23:06;;;;;;;9.05;2.35;;;51.30;36.20;;;;;;4887642;29;20044;-78
2022/06/18 14:25:57;;;;;;;7.93;1.90;;;50.80;36.30;;;;;;4887935;29;20098;-78
2022/06/18 14:28:44;;;;;;;7.05;2.45;;;50.80;36.30;;;;;;4886396;29;20035;-78
2022/06/18 14:31:10;;;;;;;7.15;2.20;;;51.20;36.70;;;;;;4902154;29;20107;-76
2022/06/18 14:33:54;;;;;;;;;;;50.00;36.30;;;;;;4888350;29;20040;-75
2022/06/18 14:36:23;;;;;;;7.45;2.30;;;50.00;36.40;;;;;;4901784;29;19971;-78
2022/06/18 14:38:55;;;;;;;6.72;2.35;;;50.60;36.70;;;;;;4887162;29;20203;-78
2022/06/18 14:41:35;;;;;;;8.13;2.20;;;50.40;36.40;;;;;;4901922;29;20039;-76
2022/06/18 14:44:39;;;;;;;7.82;2.38;;;49.70;36.70;;;;;;4886174;29;20402;-77
2022/06/18 14:47:56;;;;;;;7.20;1.90;;;51.00;36.90;;;;;;4884321;29;20184;-77
2022/06/18 14:50:50;;;;;;;9.88;2.30;;;53.60;36.20;;;;;;4838013;29;20062;-78
2022/06/18 14:53:40;;;;;;;12.98;2.58;;;51.90;35.40;;;;;;4834926;29;20018;-77
2022/06/18 14:56:28;;;;;;;10.65;3.20;;;51.20;35.60;;;;;;4847320;29;20046;-75
2022/06/18 14:59:36;;;;;;;9.18;2.90;;;51.80;35.80;;;;;;4833716;29;20089;-80
2022/06/18 15:02:13;;;;;;;7.35;2.13;;;50.70;35.60;;;;;;4758223;30;20106;-76
2022/06/18 15:04:48;;;;;;;8.23;2.88;;;50.00;35.70;;;;;;4776276;30;20047;-76
2022/06/18 15:07:13;;;;;;;9.07;2.30;;;50.40;35.60;;;;;;4763101;30;20048;-76
2022/06/18 15:09:51;;;;;;;8.73;2.70;;;50.50;36.00;;;;;;4770484;30;20381;-78
2022/06/18 15:12:19;;;;;;;9.77;3.30;;;51.30;35.60;;;;;;4776407;30;20048;-76
2022/06/18 15:14:51;;;;;;;11.93;3.38;;;51.10;35.50;;;;;;4775610;30;20059;-76
2022/06/18 15:20:17;;;;;;;11.90;2.63;;;51.70;35.10;;;;;;4764710;30;20068;-77
2022/06/18 15:25:30;;;;;;;12.30;2.70;;;51.30;34.70;;;;;;4779396;30;20206;-77
2022/06/18 15:27:58;;;;;;;9.40;2.53;;;51.50;34.50;;;;;;4778970;30;20465;-76
2022/06/18 15:30:42;;;;;;;12.80;3.08;;;51.20;34.70;;;;;;4784620;29;20364;-76
2022/06/18 15:33:10;;;;;;;10.18;3.05;;;52.20;35.30;;;;;;4797184;30;20124;-76
2022/06/18 15:35:38;;;;;;;14.43;2.80;;;52.60;34.70;;;;;;4796888;30;20039;-77
2022/06/18 15:38:05;;;;;;;11.85;2.97;;;52.80;34.20;;;;;;4860723;29;20032;-77
2022/06/18 15:40:54;;;;;;;12.35;2.63;;;51.70;33.90;;;;;;4890537;29;20017;-77
2022/06/18 15:43:26;;;;;;;17.75;3.97;;;51.50;34.20;;;;;;4904383;29;20140;-77
2022/06/18 15:46:01;;;;;;;16.55;2.83;;;50.90;34.20;;;;;;4889385;29;20041;-77
2022/06/18 15:48:27;;;;;;;12.75;2.88;;;50.10;34.00;;;;;;4890622;29;20081;-77
2022/06/18 15:50:59;;;;;;;16.93;3.50;;;49.60;34.30;;;;;;4901317;29;20033;-76
2022/06/18 15:53:27;;;;;;;17.70;3.20;;;49.10;34.50;;;;;;4871429;29;20082;-77
2022/06/18 15:55:58;;;;;;;15.68;3.20;;;49.70;34.80;;;;;;4885064;29;20037;-76
2022/06/18 15:58:25;;;;;;;15.05;3.10;;;50.00;34.60;;;;;;4905916;29;20041;-76
2022/06/18 16:00:51;;;;;;;;;;;50.80;34.20;;;;;;4891087;29;20056;-77
2022/06/18 16:03:25;;;;;;;13.93;2.90;;;50.30;34.30;;;;;;4890657;29;19919;-76
2022/06/18 16:05:54;;;;;;;11.98;2.60;;;49.30;34.20;;;;;;4890169;29;20082;-76
2022/06/18 16:08:44;;;;;;;13.15;3.90;;;49.50;34.50;;;;;;4891100;29;20032;-76
2022/06/18 16:11:30;;;;;;;14.85;3.85;;;48.50;34.90;;;;;;4903688;29;20040;-76
2022/06/18 16:14:11;;;;;;;11.85;3.22;;;48.90;35.10;;;;;;4888679;29;20252;-75
2022/06/18 16:16:52;;;;;;;15.80;3.05;;;48.70;34.90;;;;;;4887887;29;20041;-76
2022/06/18 16:19:28;;;;;;;13.57;3.50;;;49.10;35.50;;;;;;4888643;29;20045;-76
2022/06/18 16:21:57;;;;;;;16.67;3.08;;;48.90;35.10;;;;;;4886971;29;20043;-77
2022/06/18 16:24:33;;;;;;;15.98;3.28;;;48.70;35.00;;;;;;4888019;29;20080;-76
2022/06/18 16:27:01;;;;;;;15.63;3.75;;;48.70;35.30;;;;;;4887050;29;20049;-76
2022/06/18 16:29:30;;;;;;;12.30;3.28;;;48.50;35.20;;;;;;4886764;29;20060;-78
2022/06/18 16:31:58;;;;;;;15.93;3.45;;;48.20;35.30;;;;;;4886031;29;20037;-77
2022/06/18 16:35:10;;;;;;;17.30;3.60;;;48.40;35.40;;;;;;4887573;29;20033;-77
2022/06/18 16:37:39;;;;;;;16.00;3.40;;;47.50;35.40;;;;;;4851063;29;20113;-78
2022/06/18 16:40:14;;;;;;;14.43;3.40;;;47.50;35.70;;;;;;4850031;29;20054;-78
2022/06/18 16:42:58;;;;;;;17.02;3.40;;;47.60;35.70;;;;;;4863292;29;20044;-79
2022/06/18 16:45:47;;;;;;;14.48;3.65;;;47.50;35.50;;;;;;4868097;29;20057;-77
2022/06/18 16:48:36;;;;;;;11.88;3.20;;;47.10;35.50;;;;;;4845203;29;20037;-76
2022/06/18 16:51:02;;;;;;;18.48;3.58;;;47.10;35.30;;;;;;4867871;29;20174;-77
2022/06/18 16:53:35;;;;;;;15.75;3.55;;;46.80;35.80;;;;;;4853070;29;20037;-77
2022/06/18 16:56:03;;;;;;;14.45;2.78;;;46.50;35.80;;;;;;4867876;29;20171;-77
2022/06/18 16:58:29;;;;;;;14.82;3.63;;;46.60;35.80;;;;;;4868019;29;20053;-78
2022/06/18 17:00:55;;;;;;;16.35;3.75;;;46.50;35.70;;;;;;4851376;29;20052;-76
2022/06/18 17:03:22;;;;;;;15.38;3.85;;;45.80;36.00;;;;;;4864561;29;20050;-76
2022/06/18 17:05:49;;;;;;;18.15;3.85;;;45.60;36.20;;;;;;4849923;29;20042;-75
2022/06/18 17:08:19;;;;;;;14.70;4.05;;;44.90;36.60;;;;;;4850142;29;20046;-78
2022/06/18 17:10:49;;;;;;;15.52;3.38;;;44.70;36.80;;;;;;4866587;29;20038;-77
2022/06/18 17:13:17;;;;;;;15.25;3.63;;;45.00;37.00;;;;;;4866158;29;20120;-76
2022/06/18 17:15:43;;;;;;;19.65;3.40;;;44.90;36.70;;;;;;4868373;29;20105;-76
2022/06/18 17:18:10;;;;;;;19.80;4.00;;;44.80;36.90;;;;;;4869021;29;20086;-76
2022/06/18 17:20:38;;;;;;;13.32;3.47;;;44.40;37.30;;;;;;4885254;29;20021;-77
2022/06/18 17:23:06;;;;;;;18.27;3.47;;;44.30;37.60;;;;;;4870176;29;20041;-78
2022/06/18 17:31:11;;;;;;;17.88;3.47;;;44.00;37.90;;;;;;4869910;29;20053;-77
2022/06/18 17:33:50;;;;;;;15.65;3.47;;;43.20;38.00;;;;;;4870616;29;20045;-77
2022/06/18 17:36:21;;;;;;;13.57;3.47;;;42.70;38.60;;;;;;4884541;29;20056;-78
2022/06/18 17:38:51;;;;;;;16.13;3.78;;;42.30;38.90;;;;;;4870157;29;20041;-77
2022/06/18 17:41:17;;;;;;;18.08;3.63;;;42.00;39.10;;;;;;4869004;29;20089;-78
2022/06/18 17:43:43;;;;;;;15.75;3.08;;;42.00;39.10;;;;;;4869016;29;20033;-78
2022/06/18 17:46:15;;;;;;;13.82;2.92;;;41.70;39.10;;;;;;4881522;29;20110;-75
2022/06/18 17:48:42;;;;;;;12.88;3.47;;;41.50;39.50;;;;;;4868996;29;20041;-79
2022/06/18 17:51:09;;;;;;;;;;;41.40;39.60;;;;;;4892905;29;20057;-76
2022/06/18 17:53:36;;;;;;;17.88;4.03;;;41.10;39.80;;;;;;4872974;29;19915;-76
2022/06/18 17:56:04;;;;;;;15.23;4.03;;;40.70;40.40;;;;;;4873353;29;20048;-76
2022/06/18 17:58:32;;;;;;;14.02;4.10;;;40.20;40.90;;;;;;4872079;29;20053;-76
2022/06/18 18:01:00;;;;;;;17.00;4.13;;;39.80;41.00;;;;;;4882864;29;20072;-78
2022/06/18 18:03:27;;;;;;;15.30;4.22;;;39.40;41.70;;;;;;4868174;29;20057;-76
2022/06/18 18:05:53;;;;;;;13.70;3.60;;;39.20;42.00;;;;;;4869256;29;20048;-78
2022/06/18 18:08:19;;;;;;;15.82;3.60;;;39.00;42.30;;;;;;4869480;29;20273;-79
2022/06/18 18:10:46;;;;;;;13.18;3.47;;;39.00;42.60;;;;;;4886756;29;20171;-76
2022/06/18 18:13:12;;;;;;;13.03;3.43;;;38.90;42.60;;;;;;4886473;29;20044;-79
2022/06/18 18:15:39;;;;;;;16.10;3.30;;;38.30;42.80;;;;;;4886250;29;20227;-78
2022/06/18 18:18:14;;;;;;;12.75;3.42;;;38.00;43.20;;;;;;4886847;29;20052;-77
2022/06/18 18:20:40;;;;;;;18.52;3.85;;;37.80;43.70;;;;;;4886457;29;20057;-78
2022/06/18 18:23:06;;;;;;;14.73;3.13;;;37.70;43.80;;;;;;4886462;29;20326;-78
2022/06/18 18:25:33;;;;;;;17.10;3.42;;;37.50;43.70;;;;;;4900902;29;20256;-77
2022/06/18 18:28:02;;;;;;;13.23;3.03;;;37.00;44.00;;;;;;4900322;29;20033;-77
2022/06/18 18:30:28;;;;;;;16.55;4.50;;;36.70;44.40;;;;;;4899362;29;20326;-76
2022/06/18 18:32:54;;;;;;;14.07;3.20;;;36.40;44.70;;;;;;4886129;29;20039;-78
2022/06/18 18:35:20;;;;;;;12.13;3.35;;;36.10;45.00;;;;;;4885780;29;20024;-78
2022/06/18 18:37:47;;;;;;;17.67;4.00;;;35.80;45.40;;;;;;4887919;29;20183;-76
2022/06/18 18:40:13;;;;;;;18.15;4.28;;;35.60;45.50;;;;;;4871516;29;20029;-77
2022/06/18 18:42:40;;;;;;;16.17;3.72;;;35.40;46.10;;;;;;4886002;29;20037;-78
2022/06/18 18:45:06;;;;;;;12.02;2.97;;;35.20;46.50;;;;;;4883663;29;20199;-77